createdAt,value
2018-08-22T00:03:17.078Z,22.4
2018-08-22T00:08:13.264Z,22.3
2018-08-22T00:13:09.268Z,21.7
2018-08-22T00:18:05.691Z,22.2
2018-08-22T00:23:02.053Z,22.3
2018-08-22T00:27:58.519Z,22.2
2018-08-22T00:32:54.903Z,22.1
2018-08-22T00:37:51.437Z,22.1
2018-08-22T00:42:47.758Z,22.1
2018-08-22T00:47:44.063Z,22.1
2018-08-22T00:52:41.099Z,22.1
2018-08-22T00:57:37.361Z,22.1
2018-08-22T01:02:33.817Z,22
2018-08-22T01:07:30.352Z,22
2018-08-22T01:12:26.972Z,22
2018-08-22T01:17:23.474Z,21.9
2018-08-22T01:22:19.905Z,21.9
2018-08-22T01:27:15.942Z,21.9
2018-08-22T01:32:12.559Z,21.1
2018-08-22T01:37:08.767Z,21.8
2018-08-22T01:42:05.346Z,21.8
2018-08-22T01:47:01.323Z,21.8
2018-08-22T01:51:57.725Z,21.5
2018-08-22T01:56:53.790Z,21.8
2018-08-22T02:01:50.177Z,21.8
2018-08-22T02:06:46.921Z,21.7
2018-08-22T02:11:43.386Z,21.6
2018-08-22T02:16:40.891Z,21.5
2018-08-22T02:21:36.789Z,21.4
2018-08-22T02:26:34.901Z,21.4
2018-08-22T02:31:31.569Z,21.3
2018-08-22T02:36:28.667Z,21.2
2018-08-22T02:41:25.087Z,21.2
2018-08-22T02:46:21.983Z,21.1
2018-08-22T02:51:19.744Z,20.9
2018-08-22T02:56:16.275Z,21.1
2018-08-22T03:01:12.736Z,21
2018-08-22T03:06:08.830Z,21
2018-08-22T03:11:05.143Z,20.9
2018-08-22T03:16:01.573Z,20.9
2018-08-22T03:20:58.247Z,20.9
2018-08-22T03:25:54.539Z,20.9
2018-08-22T03:30:51.085Z,20.9
2018-08-22T03:35:47.496Z,20.8
2018-08-22T03:40:43.740Z,20.8
2018-08-22T03:45:40.095Z,20.8
2018-08-22T03:50:36.735Z,20.8
2018-08-22T03:55:33.205Z,20.8
2018-08-22T04:00:29.821Z,20.7
2018-08-22T04:05:27.029Z,20.6
2018-08-22T04:10:23.021Z,20.6
2018-08-22T04:15:19.344Z,20.6
2018-08-22T04:20:15.820Z,20.6
2018-08-22T04:25:12.372Z,20.5
2018-08-22T04:30:08.929Z,20.5
2018-08-22T04:35:04.913Z,20.5
2018-08-22T04:40:01.321Z,20.5
2018-08-22T04:44:57.777Z,20.4
2018-08-22T04:49:53.837Z,20.4
2018-08-22T04:54:49.941Z,20.5
2018-08-22T04:59:46.027Z,20.5
2018-08-22T05:04:42.382Z,20.5
2018-08-22T05:09:38.753Z,20.5
2018-08-22T05:14:35.038Z,20.5
2018-08-22T05:19:31.330Z,20.6
2018-08-22T05:24:27.744Z,20.6
2018-08-22T05:29:24.042Z,20.6
2018-08-22T05:34:20.649Z,20.6
2018-08-22T05:39:16.800Z,20.7
2018-08-22T05:44:13.140Z,20.8
2018-08-22T05:49:09.419Z,20.8
2018-08-22T05:54:05.868Z,20.8
2018-08-22T05:59:02.328Z,20.8
2018-08-22T06:03:58.674Z,20.9
2018-08-22T06:08:54.999Z,20.9
2018-08-22T06:13:51.597Z,21
2018-08-22T06:18:47.859Z,21
2018-08-22T06:23:44.429Z,21.1
2018-08-22T06:28:41.368Z,21.1
2018-08-22T06:33:37.501Z,21.2
2018-08-22T06:38:34.913Z,21
2018-08-22T06:43:31.049Z,21.3
2018-08-22T06:48:27.515Z,21.4
2018-08-22T06:53:24.100Z,21.5
2018-08-22T06:58:20.513Z,21.6
2018-08-22T07:03:16.837Z,21.6
2018-08-22T07:08:13.294Z,21.7
2018-08-22T07:13:18.227Z,21.8
2018-08-22T07:18:12.807Z,21.9
2018-08-22T07:23:09.323Z,21.9
2018-08-22T07:28:06.252Z,21.1
2018-08-22T07:33:02.699Z,22.1
2018-08-22T07:37:59.268Z,22.2
2018-08-22T07:42:55.869Z,22.3
2018-08-22T07:47:52.633Z,22.4
2018-08-22T07:52:49.153Z,22.5
2018-08-22T07:57:45.789Z,22.5
2018-08-22T08:02:41.999Z,22.6
2018-08-22T08:07:38.506Z,22.7
2018-08-22T08:12:34.867Z,22.8
2018-08-22T08:17:30.875Z,22.9
2018-08-22T08:22:27.490Z,22.2
2018-08-22T08:27:24.119Z,23.1
2018-08-22T08:32:20.567Z,22.5
2018-08-22T08:37:17.493Z,23.3
2018-08-22T08:42:13.389Z,23.4
2018-08-22T08:47:09.828Z,23.5
2018-08-22T08:52:06.767Z,22.9
2018-08-22T08:57:03.443Z,23.8
2018-08-22T09:02:00.299Z,23.2
2018-08-22T09:06:56.885Z,23.9
2018-08-22T09:11:53.587Z,23.4
2018-08-22T09:16:50.202Z,23.6
2018-08-22T09:21:46.984Z,24.5
2018-08-22T09:26:43.537Z,24.6
2018-08-22T09:31:40.069Z,24.8
2018-08-22T09:36:36.789Z,24.9
2018-08-22T09:41:33.477Z,25.1
2018-08-22T09:46:29.710Z,25.3
2018-08-22T09:51:26.390Z,25.5
2018-08-22T09:56:23.018Z,25.6
2018-08-22T10:01:19.207Z,25.8
2018-08-22T10:06:15.799Z,26
2018-08-22T10:11:11.908Z,26.2
2018-08-22T10:16:08.520Z,26.2
2018-08-22T10:21:05.218Z,26.2
2018-08-22T10:26:01.732Z,26.3
2018-08-22T10:30:58.478Z,26.5
2018-08-22T10:35:55.471Z,26.6
2018-08-22T10:40:52.490Z,26.8
2018-08-22T10:45:48.719Z,26.9
2018-08-22T10:50:45.897Z,26.9
2018-08-22T10:55:42.505Z,26.9
2018-08-22T11:00:39.534Z,27.1
2018-08-22T11:05:35.932Z,27.2
2018-08-22T11:10:32.517Z,27.4
2018-08-22T11:15:29.756Z,27.6
2018-08-22T11:20:26.454Z,27.8
2018-08-22T11:25:23.605Z,28
2018-08-22T11:30:20.207Z,28
2018-08-22T11:35:16.867Z,28.1
2018-08-22T11:40:13.654Z,28.4
2018-08-22T11:45:10.251Z,28.7
2018-08-22T11:50:07.198Z,29
2018-08-22T11:55:03.665Z,29.2
2018-08-22T12:00:00.564Z,29.4
2018-08-22T12:04:57.129Z,29.6
2018-08-22T12:09:53.862Z,29.1
2018-08-22T12:14:50.534Z,30
2018-08-22T12:19:47.553Z,30.1
2018-08-22T12:24:46.117Z,30
2018-08-22T12:29:42.850Z,30.2
2018-08-22T12:34:39.244Z,30.3
2018-08-22T12:39:35.606Z,29.8
2018-08-22T12:44:32.207Z,30.1
2018-08-22T12:49:28.757Z,29.1
2018-08-22T12:54:25.249Z,29.4
2018-08-22T12:59:21.693Z,28.9
2018-08-22T13:04:18.151Z,29
2018-08-22T13:09:15.254Z,28.9
2018-08-22T13:14:11.823Z,28.7
2018-08-22T13:19:08.373Z,29
2018-08-22T13:24:05.200Z,29.2
2018-08-22T13:29:02.198Z,29.3
2018-08-22T13:33:58.919Z,29.3
2018-08-22T13:38:55.376Z,29.2
2018-08-22T13:43:51.927Z,29.4
2018-08-22T13:48:48.633Z,29.3
2018-08-22T13:53:47.226Z,29.2
2018-08-22T13:58:47.553Z,29.2
2018-08-22T14:03:43.264Z,29.1
2018-08-22T14:08:39.724Z,29.1
2018-08-22T14:13:36.179Z,29.1
2018-08-22T14:18:32.807Z,29.1
2018-08-22T14:23:29.272Z,29.1
2018-08-22T14:28:25.782Z,29.1
2018-08-22T14:33:22.361Z,29.1
2018-08-22T14:38:19.291Z,29.1
2018-08-22T14:43:15.767Z,29.1
2018-08-22T14:48:12.519Z,29.1
2018-08-22T14:53:09.167Z,29.1
2018-08-22T14:58:05.684Z,29
2018-08-22T15:03:02.460Z,28.8
2018-08-22T15:07:59.763Z,28.7
2018-08-22T15:12:56.118Z,28.6
2018-08-22T15:17:52.558Z,28.5
2018-08-22T15:22:49.052Z,27.6
2018-08-22T15:27:46.004Z,28.4
2018-08-22T15:32:44.056Z,27
2018-08-22T15:37:40.396Z,28.4
2018-08-22T15:42:36.937Z,28.4
2018-08-22T15:47:33.311Z,28.4
2018-08-22T15:52:29.861Z,28.4
2018-08-22T15:57:26.367Z,28.1
2018-08-22T16:02:22.799Z,28.3
2018-08-22T16:07:19.406Z,28.3
2018-08-22T16:12:16.239Z,28.3
2018-08-22T16:17:12.837Z,28.3
2018-08-22T16:22:09.262Z,28.3
2018-08-22T16:27:05.787Z,28.2
2018-08-22T16:32:02.916Z,28.1
2018-08-22T16:36:59.300Z,28
2018-08-22T16:41:55.821Z,28
2018-08-22T16:46:52.436Z,27.9
2018-08-22T16:51:49.115Z,27.8
2018-08-22T16:56:45.566Z,27.7
2018-08-22T17:01:41.746Z,27.6
2018-08-22T17:06:38.007Z,27.5
2018-08-22T17:11:35.161Z,27.4
2018-08-22T17:16:32.732Z,27.3
2018-08-22T17:21:30.267Z,27.2
2018-08-22T17:26:26.886Z,27.2
2018-08-22T17:31:24.310Z,27.1
2018-08-22T17:36:21.073Z,27
2018-08-22T17:41:18.380Z,27
2018-08-22T17:46:14.794Z,26.9
2018-08-22T17:51:11.101Z,26.8
2018-08-22T17:56:07.668Z,26.8
2018-08-22T18:01:04.884Z,26
2018-08-22T18:06:01.406Z,26.7
2018-08-22T18:10:58.132Z,26.6
2018-08-22T18:15:55.018Z,26.5
2018-08-22T18:20:51.479Z,26.5
2018-08-22T18:25:48.078Z,26.5
2018-08-22T18:30:48.922Z,25.8
2018-08-22T18:35:44.938Z,26.2
2018-08-22T18:40:41.815Z,26.4
2018-08-22T18:45:46.356Z,26.3
2018-08-22T18:50:41.121Z,26.3
2018-08-22T18:55:37.517Z,26.2
2018-08-22T19:00:34.033Z,26.2
2018-08-22T19:05:30.766Z,26.1
2018-08-22T19:10:27.845Z,26.1
2018-08-22T19:15:24.238Z,26.1
2018-08-22T19:20:20.680Z,26.1
2018-08-22T19:25:17.171Z,26.1
2018-08-22T19:30:17.752Z,26
2018-08-22T19:35:15.642Z,25.4
2018-08-22T19:40:11.417Z,26
2018-08-22T19:45:09.575Z,25.9
2018-08-22T19:55:18.392Z,25.9
2018-08-22T20:00:27.332Z,25.8
2018-08-22T20:05:31.615Z,25.9
2018-08-22T20:10:41.086Z,25.8
2018-08-22T20:15:46.518Z,25.8
2018-08-22T20:20:45.737Z,25.5
2018-08-22T20:25:49.874Z,25
2018-08-22T20:30:50.624Z,25.6
2018-08-22T20:35:49.711Z,24.8
2018-08-22T20:40:47.005Z,24.7
2018-08-22T20:45:43.802Z,25.2
2018-08-22T20:50:40.841Z,25.4
2018-08-22T20:55:38.347Z,24.6
2018-08-22T21:00:36.969Z,25.3
2018-08-22T21:05:35.334Z,25.2
2018-08-22T21:10:32.223Z,25.2
2018-08-22T21:15:29.012Z,25.1
2018-08-22T21:20:30.191Z,24.8
2018-08-22T21:25:28.907Z,24.4
2018-08-22T21:30:27.976Z,24.8
2018-08-22T21:35:26.835Z,24.3
2018-08-22T21:40:24.154Z,25
2018-08-22T21:45:22.390Z,24.9
2018-08-22T21:50:19.239Z,24.9
2018-08-22T21:55:18.092Z,24.9
2018-08-22T22:00:17.889Z,24.1
2018-08-22T22:05:17.131Z,24.8
2018-08-22T22:10:13.124Z,24.8
2018-08-22T22:15:09.774Z,24.8
2018-08-22T22:20:06.495Z,24.8
2018-08-22T22:25:03.974Z,24.7
2018-08-22T22:30:01.933Z,24.6
2018-08-22T22:34:59.683Z,24.5
2018-08-22T22:39:57.296Z,24.4
2018-08-22T22:44:54.141Z,24.3
2018-08-22T22:49:51.018Z,24.2
2018-08-22T22:54:47.976Z,23.5
2018-08-22T22:59:45.043Z,24.1
2018-08-22T23:04:44.634Z,24.1
2018-08-22T23:09:40.033Z,23.8
2018-08-22T23:14:36.491Z,24
2018-08-22T23:19:32.935Z,24
2018-08-22T23:24:30.141Z,24
2018-08-22T23:29:30.172Z,23.9
2018-08-22T23:34:27.198Z,23.7
2018-08-22T23:39:23.729Z,23.9
2018-08-22T23:44:20.325Z,23.6
2018-08-22T23:49:18.076Z,23.8
2018-08-22T23:54:16.413Z,23.8
2018-08-22T23:59:13.496Z,23.7
